Time;durP1;ratioP1;P1;durP2;ratioP2;P2;SDS_P1;SDS_P2;PMS_P1;PMS_P2;Temp;Humidity;BMP_temperature;BMP_pressure;BME280_temperature;BME280_humidity;BME280_pressure;Samples;Min_cycle;Max_cycle;Signal;HPM_P1;HPM_P2
2021/11/13 00:00:39;;;;;;;71.65;27.23;;;;;;;5.89;91.91;101693.88;5045623;28;20025;-74
2021/11/13 00:03:05;;;;;;;74.55;28.42;;;;;;;5.96;91.21;101697.44;5047988;28;20037;-74
2021/11/13 00:05:31;;;;;;;62.85;25.63;;;;;;;5.97;91.45;101696.44;5047460;28;20033;-74
2021/11/13 00:07:58;;;;;;;58.92;25.25;;;;;;;5.88;91.14;101694.88;5047742;28;20026;-73
2021/11/13 00:10:27;;;;;;;67.57;26.98;;;;;;;5.77;91.41;101688.28;5046459;28;20045;-73
2021/11/13 00:12:57;;;;;;;65.00;27.48;;;;;;;5.75;91.73;101691.13;5043690;28;20225;-74
2021/11/13 00:15:24;;;;;;;65.03;25.55;;;;;;;5.60;91.61;101690.41;5046897;28;20103;-74
2021/11/13 00:17:51;;;;;;;54.63;25.75;;;;;;;5.66;91.74;101686.13;5045740;28;20024;-74
2021/11/13 00:20:18;;;;;;;59.50;25.13;;;;;;;5.63;90.82;101682.03;5042016;28;20525;-73
2021/11/13 00:22:44;;;;;;;50.58;21.42;;;;;;;5.62;90.23;101680.38;5040713;28;20119;-74
2021/11/13 00:25:11;;;;;;;60.53;26.83;;;;;;;5.64;90.11;101677.53;5048079;28;20111;-73
2021/11/13 00:27:36;;;;;;;45.92;20.40;;;;;;;5.41;89.92;101678.59;5044307;28;20039;-73
2021/11/13 00:30:04;;;;;;;50.80;21.85;;;;;;;5.35;89.82;101689.13;5046092;28;20646;-73
2021/11/13 00:32:30;;;;;;;56.45;25.60;;;;;;;5.45;90.23;101679.00;5047142;28;20071;-74
2021/11/13 00:34:56;;;;;;;57.78;23.05;;;;;;;5.49;89.90;101679.44;5035285;28;20025;-73
2021/11/13 00:37:21;;;;;;;63.95;25.08;;;;;;;5.41;89.90;101678.59;5040797;28;20025;-74
2021/11/13 00:39:46;;;;;;;64.45;25.92;;;;;;;5.37;89.87;101674.63;5043816;28;20021;-73
2021/11/13 00:42:12;;;;;;;64.32;27.08;;;;;;;5.45;89.47;101687.00;5047056;28;20040;-74
2021/11/13 00:44:38;;;;;;;62.72;23.83;;;;;;;5.49;89.13;101679.44;5047241;28;20166;-74
2021/11/13 00:47:04;;;;;;;54.38;23.60;;;;;;;5.43;89.48;101675.72;5043637;28;20025;-75
2021/11/13 00:49:30;;;;;;;64.13;26.10;;;;;;;5.53;89.39;101686.00;5035511;28;20024;-74
2021/11/13 00:51:55;;;;;;;67.95;25.88;;;;;;;5.54;89.39;101691.13;5037772;28;20033;-74
2021/11/13 00:54:21;;;;;;;71.65;26.40;;;;;;;5.50;89.80;101697.84;5043279;28;20024;-74
2021/11/13 00:56:47;;;;;;;69.72;26.30;;;;;;;5.42;90.00;101698.81;5041822;28;20025;-74
2021/11/13 00:59:14;;;;;;;68.65;27.00;;;;;;;5.56;89.78;101707.72;5049214;28;20443;-74
2021/11/13 01:01:40;;;;;;;70.85;27.80;;;;;;;5.61;89.31;101700.00;5042952;28;20037;-73
2021/11/13 01:04:05;;;;;;;71.00;28.35;;;;;;;5.66;89.10;101700.25;5041502;28;20063;-73
2021/11/13 01:06:31;;;;;;;69.43;28.45;;;;;;;5.75;88.62;101688.47;5046905;28;20044;-73
2021/11/13 01:08:57;;;;;;;71.35;29.00;;;;;;;5.79;88.38;101680.94;5050271;28;20024;-74
2021/11/13 01:11:23;;;;;;;69.28;26.85;;;;;;;5.85;88.27;101666.84;5046795;28;20435;-74
2021/11/13 01:13:49;;;;;;;67.05;28.73;;;;;;;5.88;87.87;101670.94;5045581;28;20035;-74
2021/11/13 01:16:15;;;;;;;70.70;29.90;;;;;;;5.85;87.76;101668.69;5042670;28;20024;-73
2021/11/13 01:18:41;;;;;;;70.78;28.48;;;;;;;5.89;87.78;101672.59;5040755;28;20024;-74
2021/11/13 01:21:07;;;;;;;80.65;30.73;;;;;;;5.86;87.89;101671.16;5045319;28;20040;-74
2021/11/13 01:23:33;;;;;;;70.68;28.17;;;;;;;5.87;88.07;101664.81;5042753;28;20032;-74
2021/11/13 01:25:59;;;;;;;69.97;28.52;;;;;;;5.92;87.71;101654.44;5045380;28;20068;-74
2021/11/13 01:28:25;;;;;;;64.82;27.95;;;;;;;5.93;87.59;101661.41;5046149;28;20063;-74
2021/11/13 01:30:50;;;;;;;69.32;28.95;;;;;;;5.91;87.98;101657.28;5042851;28;20056;-74
2021/11/13 01:33:16;;;;;;;72.32;29.23;;;;;;;5.96;87.51;101646.91;5048388;28;20103;-73
2021/11/13 01:35:42;;;;;;;70.18;28.25;;;;;;;5.95;87.78;101637.28;5044732;28;20124;-74
2021/11/13 01:38:07;;;;;;;66.90;28.38;;;;;;;5.97;87.65;101641.38;5049587;28;20028;-74
2021/11/13 01:40:34;;;;;;;73.47;28.58;;;;;;;5.89;87.13;101644.16;5042314;28;20045;-74
2021/11/13 01:43:00;;;;;;;68.90;27.20;;;;;;;5.91;87.49;101638.66;5039516;28;20031;-73
2021/11/13 01:45:27;;;;;;;70.63;30.55;;;;;;;5.91;87.44;101631.50;5041789;28;20028;-74
2021/11/13 01:47:53;;;;;;;66.38;28.05;;;;;;;5.90;87.51;101626.38;5045595;28;20648;-74
2021/11/13 01:50:25;;;;;;;65.50;27.58;;;;;;;5.89;87.47;101617.56;5045168;28;20079;-74
2021/11/13 01:52:52;;;;;;;71.47;29.90;;;;;;;5.86;87.63;101615.28;5044169;28;20030;-74
2021/11/13 01:55:21;;;;;;;69.75;28.63;;;;;;;5.90;87.83;101607.75;5042725;28;20028;-73
2021/11/13 01:57:48;;;;;;;71.35;30.17;;;;;;;5.87;87.53;101579.69;5041999;28;20206;-73
2021/11/13 02:00:24;;;;;;;77.72;29.55;;;;;;;5.92;87.14;101576.47;5046092;28;20105;-74
2021/11/13 02:02:50;;;;;;;72.60;29.35;;;;;;;5.89;87.31;101582.16;5040466;28;20032;-74
2021/11/13 02:05:16;;;;;;;75.93;30.63;;;;;;;5.82;87.58;101568.00;5043677;28;20029;-74
2021/11/13 02:07:42;;;;;;;70.47;29.55;;;;;;;5.78;87.55;101564.94;5046976;28;20039;-73
2021/11/13 02:10:09;;;;;;;81.95;30.58;;;;;;;5.69;88.04;101566.91;5038357;28;20025;-74
2021/11/13 02:12:35;;;;;;;69.20;29.00;;;;;;;5.66;88.33;101564.66;5047837;28;20067;-74
2021/11/13 02:15:01;;;;;;;75.18;30.65;;;;;;;5.71;88.15;101572.03;5041459;28;20594;-74
2021/11/13 02:17:27;;;;;;;69.03;29.00;;;;;;;5.64;88.48;101563.22;5043107;28;20029;-73
2021/11/13 02:19:52;;;;;;;72.20;30.15;;;;;;;5.65;88.72;101565.66;5044104;28;20665;-74
2021/11/13 02:22:17;;;;;;;70.82;29.33;;;;;;;5.66;88.52;101567.31;5043472;28;20017;-73
2021/11/13 02:24:44;;;;;;;69.25;28.70;;;;;;;5.63;88.70;101562.38;5045200;28;20045;-74
2021/11/13 02:27:10;;;;;;;71.78;27.52;;;;;;;5.62;88.66;101574.03;5045111;28;20038;-73
2021/11/13 02:29:36;;;;;;;74.07;28.55;;;;;;;5.58;89.15;101575.47;5043875;28;20033;-73
2021/11/13 02:32:02;;;;;;;68.63;29.13;;;;;;;5.59;88.97;101563.81;5046247;28;20063;-74
2021/11/13 02:34:28;;;;;;;74.10;28.17;;;;;;;5.62;88.98;101563.41;5039990;28;20052;-74
2021/11/13 02:36:53;;;;;;;74.40;30.50;;;;;;;5.61;89.00;101561.78;5045708;28;20049;-74
2021/11/13 02:39:19;;;;;;;71.95;28.63;;;;;;;5.63;89.27;101557.06;5048503;28;20028;-74
2021/11/13 02:41:45;;;;;;;71.35;28.85;;;;;;;5.70;89.24;101555.25;5042301;28;20875;-74
2021/11/13 02:44:11;;;;;;;73.05;27.95;;;;;;;5.69;89.05;101550.97;5047075;28;20028;-74
2021/11/13 02:46:38;;;;;;;75.57;29.67;;;;;;;5.69;88.88;101552.81;5047355;28;20025;-74
2021/11/13 02:49:06;;;;;;;74.47;31.90;;;;;;;5.63;88.53;101549.09;5043224;28;20040;-73
2021/11/13 02:51:31;;;;;;;60.92;25.92;;;;;;;5.67;88.89;101545.03;5045259;28;20028;-73
2021/11/13 02:53:57;;;;;;;76.70;29.00;;;;;;;5.69;88.73;101542.97;5045886;28;20029;-74
2021/11/13 02:56:22;;;;;;;71.50;29.85;;;;;;;5.71;88.75;101540.13;5038721;28;20102;-74
2021/11/13 02:58:48;;;;;;;68.53;28.02;;;;;;;5.71;89.12;101538.28;5042159;28;20490;-73
2021/11/13 03:01:21;;;;;;;67.63;28.88;;;;;;;5.68;88.51;101549.31;5043768;28;20048;-74
2021/11/13 03:03:53;;;;;;;68.88;28.80;;;;;;;5.65;88.92;101563.00;5058333;28;20111;-73
2021/11/13 03:06:18;;;;;;;73.90;28.30;;;;;;;5.64;88.71;101568.53;5043477;28;20031;-74
2021/11/13 03:08:46;;;;;;;73.05;29.58;;;;;;;5.65;88.89;101576.31;5044083;28;20143;-74
2021/11/13 03:11:14;;;;;;;72.45;27.85;;;;;;;5.61;89.19;101568.91;5040709;28;20392;-73
2021/11/13 03:13:42;;;;;;;67.20;27.75;;;;;;;5.65;88.79;101562.19;5037719;28;20029;-74
2021/11/13 03:16:09;;;;;;;68.65;27.17;;;;;;;5.64;88.70;101566.69;5040277;28;20028;-74
2021/11/13 03:18:35;;;;;;;71.13;27.92;;;;;;;5.61;88.88;101567.09;5038610;28;20029;-74
2021/11/13 03:21:07;;;;;;;70.88;30.45;;;;;;;5.65;88.95;101567.50;5040871;28;20070;-73
2021/11/13 03:23:34;;;;;;;74.95;29.27;;;;;;;5.64;88.91;101561.38;5037051;28;20029;-74
2021/11/13 03:26:05;;;;;;;71.00;30.10;;;;;;;5.65;88.43;101564.84;5035663;28;20053;-74
2021/11/13 03:28:35;;;;;;;68.82;28.52;;;;;;;5.58;88.90;101562.16;5046779;28;20060;-74
2021/11/13 03:31:02;;;;;;;71.28;29.83;;;;;;;5.62;89.13;101568.72;5047203;28;20479;-74
2021/11/13 03:33:35;;;;;;;70.57;29.30;;;;;;;5.65;88.89;101567.50;5046068;28;20032;-73
2021/11/13 03:36:01;;;;;;;72.40;28.65;;;;;;;5.68;88.60;101567.94;5040922;28;20509;-74
2021/11/13 03:38:26;;;;;;;74.32;29.50;;;;;;;5.72;88.35;101573.69;5048671;28;20037;-73
2021/11/13 03:40:52;;;;;;;70.35;29.20;;;;;;;5.71;88.68;101578.16;5043260;28;20052;-73
2021/11/13 03:43:18;;;;;;;67.38;27.90;;;;;;;5.75;88.31;101563.50;5043791;28;20372;-74
2021/11/13 03:45:46;;;;;;;70.97;27.63;;;;;;;5.76;88.07;101569.63;5046861;28;21749;-74
2021/11/13 03:48:11;;;;;;;78.13;30.98;;;;;;;5.72;88.19;101574.50;5045005;28;20032;-74
2021/11/13 03:50:37;;;;;;;71.18;29.55;;;;;;;5.72;88.61;101571.84;5046677;28;20024;-74
2021/11/13 03:53:05;;;;;;;73.00;28.27;;;;;;;5.73;88.20;101575.31;5044242;28;21829;-74
2021/11/13 03:55:31;;;;;;;71.07;29.00;;;;;;;5.75;87.95;101574.13;5047854;28;20032;-74
2021/11/13 03:57:59;;;;;;;65.82;29.17;;;;;;;5.80;88.06;101554.09;5044273;28;20029;-73
2021/11/13 04:00:25;;;;;;;69.03;29.40;;;;;;;5.79;87.93;101557.78;5043841;28;20052;-74
2021/11/13 04:02:52;;;;;;;67.22;28.15;;;;;;;5.80;87.72;101543.47;5044916;28;20420;-74
2021/11/13 04:05:18;;;;;;;67.10;28.88;;;;;;;5.78;87.70;101542.84;5047547;28;20024;-74
2021/11/13 04:07:44;;;;;;;67.78;30.88;;;;;;;5.70;87.94;101534.00;5046238;28;20029;-74
2021/11/13 04:10:11;;;;;;;77.65;30.13;;;;;;;5.66;88.36;101567.31;5049219;28;20031;-73
2021/11/13 04:12:37;;;;;;;72.22;30.27;;;;;;;5.54;88.90;101568.03;5044089;28;20021;-73
2021/11/13 04:15:04;;;;;;;77.85;29.48;;;;;;;5.61;88.77;101556.44;5043810;28;20163;-74
2021/11/13 04:17:29;;;;;;;78.35;28.75;;;;;;;5.67;88.80;101553.00;5040912;28;20037;-74
2021/11/13 04:19:55;;;;;;;78.80;29.92;;;;;;;5.68;88.56;101533.38;5048629;28;20039;-73
2021/11/13 04:22:20;;;;;;;76.32;29.73;;;;;;;5.67;88.32;101521.09;5036982;28;20020;-74
2021/11/13 04:24:47;;;;;;;78.85;30.02;;;;;;;5.68;88.57;101516.59;5045179;28;20414;-73
2021/11/13 04:27:15;;;;;;;80.28;30.75;;;;;;;5.67;88.20;101515.78;5043939;28;20484;-73
2021/11/13 04:29:41;;;;;;;75.90;28.90;;;;;;;5.64;88.39;101518.00;5043018;28;20058;-73
2021/11/13 04:32:07;;;;;;;75.32;29.85;;;;;;;5.57;89.16;101507.34;5042412;28;20029;-74
2021/11/13 04:34:44;;;;;;;67.65;29.60;;;;;;;5.57;88.98;101512.66;5047316;28;20054;-74
2021/11/13 04:37:15;;;;;;;78.45;31.60;;;;;;;5.57;89.05;101515.34;5043266;28;20021;-74
2021/11/13 04:39:41;;;;;;;79.40;29.08;;;;;;;5.66;88.33;101514.13;5040504;28;20558;-73
2021/11/13 04:42:06;;;;;;;72.80;29.98;;;;;;;5.63;88.38;101501.25;5045065;28;20124;-73
2021/11/13 04:44:32;;;;;;;79.57;29.80;;;;;;;5.56;88.78;101494.22;5036846;28;20090;-74
2021/11/13 04:46:58;;;;;;;78.43;30.60;;;;;;;5.55;89.03;101497.91;5039171;28;20434;-73
2021/11/13 04:49:23;;;;;;;76.80;29.77;;;;;;;5.60;88.66;101498.97;5045255;28;20433;-74
2021/11/13 04:51:49;;;;;;;72.93;29.65;;;;;;;5.64;88.92;101497.56;5046682;28;20338;-73
2021/11/13 04:54:14;;;;;;;78.60;30.27;;;;;;;5.67;88.48;101497.16;5044716;28;20452;-73
2021/11/13 04:56:40;;;;;;;70.43;29.05;;;;;;;5.66;88.52;101492.88;5043612;28;20112;-73
2021/11/13 04:59:06;;;;;;;78.75;29.45;;;;;;;5.72;88.37;101484.09;5046540;28;20040;-73
2021/11/13 05:01:32;;;;;;;83.80;31.17;;;;;;;5.69;88.61;101484.50;5042967;28;20029;-73
2021/11/13 05:03:58;;;;;;;86.45;30.23;;;;;;;5.72;88.43;101494.72;5040595;28;20442;-73
2021/11/13 05:06:23;;;;;;;79.20;31.42;;;;;;;5.62;88.45;101491.63;5043944;28;20036;-73
2021/11/13 05:08:49;;;;;;;87.35;32.20;;;;;;;5.63;88.80;101506.56;5046456;28;20551;-74
2021/11/13 05:11:14;;;;;;;83.60;31.52;;;;;;;5.55;89.54;101497.91;5039740;28;20168;-74
2021/11/13 05:13:40;;;;;;;80.28;30.23;;;;;;;5.55;89.59;101503.22;5041667;28;20687;-73
2021/11/13 05:16:06;;;;;;;81.03;30.55;;;;;;;5.50;89.32;101495.84;5045772;28;20032;-74
2021/11/13 05:18:31;;;;;;;79.72;29.88;;;;;;;5.46;89.81;101511.38;5046967;28;20068;-73
2021/11/13 05:20:57;;;;;;;77.35;30.38;;;;;;;5.50;89.88;101516.28;5045249;28;20120;-73
2021/11/13 05:23:22;;;;;;;75.03;29.58;;;;;;;5.55;89.63;101505.88;5043888;28;20039;-74
2021/11/13 05:25:48;;;;;;;70.85;28.85;;;;;;;5.51;89.80;101508.13;5043323;28;20036;-74
2021/11/13 05:28:14;;;;;;;78.38;30.85;;;;;;;5.57;89.66;101502.03;5044545;28;20488;-73
2021/11/13 05:30:39;;;;;;;81.15;30.70;;;;;;;5.58;89.70;101506.34;5044819;28;20923;-73
2021/11/13 05:33:05;;;;;;;77.93;31.05;;;;;;;5.56;89.95;101505.69;5046560;28;20033;-74
2021/11/13 05:35:31;;;;;;;78.43;31.63;;;;;;;5.59;89.40;101512.47;5046543;28;20051;-73
2021/11/13 05:37:56;;;;;;;76.97;30.75;;;;;;;5.63;89.49;101505.75;5039636;28;20025;-74
2021/11/13 05:40:22;;;;;;;69.15;26.85;;;;;;;5.64;89.21;101516.19;5043354;28;20024;-72
2021/11/13 05:42:49;;;;;;;77.57;30.65;;;;;;;5.61;88.92;101513.91;5040412;28;20447;-73
2021/11/13 05:45:15;;;;;;;72.50;29.80;;;;;;;5.62;88.87;101517.41;5039373;28;20060;-73
2021/11/13 05:47:42;;;;;;;76.82;29.80;;;;;;;5.65;89.32;101517.81;5038454;28;20053;-74
2021/11/13 05:50:12;;;;;;;78.38;29.75;;;;;;;5.67;88.75;101522.94;5042891;28;20512;-73
2021/11/13 05:52:40;;;;;;;73.47;28.60;;;;;;;5.68;88.87;101528.06;5042897;28;20032;-74
2021/11/13 05:55:06;;;;;;;74.68;29.77;;;;;;;5.68;88.80;101529.88;5050036;22;20071;-51
2021/11/13 05:57:32;;;;;;;60.45;24.40;;;;;;;5.58;88.93;101540.91;5034978;28;20054;-51
2021/11/13 05:59:57;;;;;;;72.93;30.45;;;;;;;5.58;88.95;101532.09;5014125;28;20037;-53
2021/11/13 06:02:23;;;;;;;72.60;27.80;;;;;;;5.42;89.53;101554.50;5013691;28;20026;-52
2021/11/13 06:04:48;;;;;;;65.45;28.42;;;;;;;5.49;89.73;101560.66;5015302;28;20560;-54
2021/11/13 06:07:14;;;;;;;59.65;23.88;;;;;;;5.27;90.88;101569.72;5018797;28;20533;-51
2021/11/13 06:09:39;;;;;;;68.22;27.75;;;;;;;5.36;91.20;101563.22;5037043;22;20037;-57
2021/11/13 06:12:05;;;;;;;76.45;29.08;;;;;;;5.41;91.25;101552.84;5037247;28;20044;-55
2021/11/13 06:14:31;;;;;;;63.88;26.80;;;;;;;5.37;91.02;101555.03;5034475;28;20104;-57
2021/11/13 06:16:57;;;;;;;73.80;28.20;;;;;;;5.49;90.35;101550.03;5040555;28;20033;-55
2021/11/13 06:19:23;;;;;;;65.72;27.40;;;;;;;5.52;90.61;101562.91;5040441;28;20017;-55
2021/11/13 06:21:49;;;;;;;73.80;27.85;;;;;;;5.56;90.24;101564.16;5033658;28;20394;-57
2021/11/13 06:24:14;;;;;;;70.40;27.40;;;;;;;5.57;89.90;101571.16;5038967;28;20325;-53
2021/11/13 06:26:40;;;;;;;70.75;28.63;;;;;;;5.43;90.48;101569.41;5035255;28;20056;-56
2021/11/13 06:29:06;;;;;;;63.70;27.17;;;;;;;5.57;90.52;101563.19;5039579;28;20033;-57
2021/11/13 06:31:32;;;;;;;63.42;25.85;;;;;;;5.57;90.58;101576.47;5035336;28;20409;-54
2021/11/13 06:33:57;;;;;;;67.32;26.95;;;;;;;5.54;90.16;101573.34;5039808;28;20025;-56
2021/11/13 06:36:23;;;;;;;70.13;28.13;;;;;;;5.49;90.42;101578.44;5037590;28;20033;-55
2021/11/13 06:38:49;;;;;;;68.60;28.92;;;;;;;5.60;90.39;101576.06;5040205;28;20037;-53
2021/11/13 06:41:14;;;;;;;73.10;27.73;;;;;;;5.64;89.58;101582.63;5040938;28;20036;-56
2021/11/13 06:43:40;;;;;;;72.82;28.70;;;;;;;5.58;89.98;101580.78;5038783;28;20037;-56
2021/11/13 06:46:05;;;;;;;70.22;28.95;;;;;;;5.67;89.72;101579.59;5041981;28;20761;-56
2021/11/13 06:48:31;;;;;;;66.38;26.83;;;;;;;5.66;89.84;101580.59;5034185;28;20037;-55
2021/11/13 06:50:56;;;;;;;65.50;26.05;;;;;;;5.67;89.66;101573.44;5034188;28;20033;-57
2021/11/13 06:53:22;;;;;;;63.65;25.88;;;;;;;5.80;89.17;101554.09;5041374;28;20279;-55
2021/11/13 06:55:48;;;;;;;60.45;25.05;;;;;;;5.80;89.17;101559.41;5036516;28;20491;-54
2021/11/13 06:58:15;;;;;;;68.35;27.50;;;;;;;5.78;89.09;101556.97;5035581;28;20032;-56
2021/11/13 07:00:40;;;;;;;66.70;28.02;;;;;;;5.80;89.20;101559.41;5034385;28;20056;-58
2021/11/13 07:03:06;;;;;;;64.20;27.45;;;;;;;5.80;88.91;101564.72;5036430;28;20489;-54
2021/11/13 07:05:32;;;;;;;65.25;26.67;;;;;;;5.80;89.21;101560.25;5040027;28;20032;-57
2021/11/13 07:07:58;;;;;;;60.30;26.00;;;;;;;5.85;89.14;101562.28;5032727;28;20029;-59
2021/11/13 07:10:25;;;;;;;66.25;26.95;;;;;;;5.88;88.96;101562.72;5039296;28;20079;-55
2021/11/13 07:12:51;;;;;;;66.97;27.67;;;;;;;5.87;88.57;101569.06;5031412;28;20479;-56
2021/11/13 07:15:17;;;;;;;60.80;27.13;;;;;;;5.90;88.94;101573.19;5035461;28;20176;-55
2021/11/13 07:17:44;;;;;;;64.20;25.67;;;;;;;5.85;88.86;101580.91;5036725;28;20036;-55
2021/11/13 07:20:11;;;;;;;63.60;26.13;;;;;;;5.90;88.79;101583.81;5033365;28;20482;-56
2021/11/13 07:22:38;;;;;;;62.55;25.90;;;;;;;5.88;88.52;101589.31;5034944;28;20056;-58
2021/11/13 07:25:07;;;;;;;57.75;24.83;;;;;;;5.92;88.78;101590.59;5043764;28;20033;-56
2021/11/13 07:27:32;;;;;;;56.88;24.75;;;;;;;5.98;88.13;101596.97;5039720;28;20036;-54
2021/11/13 07:30:00;;;;;;;57.80;25.23;;;;;;;6.07;87.91;101583.31;5041451;28;20025;-56
2021/11/13 07:32:27;;;;;;;57.45;25.30;;;;;;;6.11;87.72;101586.41;5042981;28;20513;-54
2021/11/13 07:34:52;;;;;;;61.08;25.75;;;;;;;6.15;87.54;101590.31;5041140;28;20039;-56
2021/11/13 07:37:18;;;;;;;56.90;23.90;;;;;;;6.27;87.66;101593.22;5034940;28;20040;-57
2021/11/13 07:39:44;;;;;;;59.60;25.48;;;;;;;6.33;86.79;101587.94;5033016;28;20051;-55
2021/11/13 07:42:09;;;;;;;61.75;25.48;;;;;;;6.34;86.79;101599.41;5036296;28;20498;-58
2021/11/13 07:44:35;;;;;;;60.53;24.27;;;;;;;6.30;86.84;101598.97;5037128;28;20037;-57
2021/11/13 07:47:01;;;;;;;55.67;23.83;;;;;;;6.30;86.86;101601.63;5041086;28;20501;-54
2021/11/13 07:49:26;;;;;;;57.92;24.83;;;;;;;6.30;86.52;101596.31;5034786;28;20406;-54
2021/11/13 07:51:52;;;;;;;51.80;24.05;;;;;;;6.34;86.63;101600.22;5034773;28;20032;-55
2021/11/13 07:54:19;;;;;;;60.05;25.42;;;;;;;6.38;86.27;101592.66;5033423;28;20601;-55
2021/11/13 07:56:46;;;;;;;62.80;25.35;;;;;;;6.38;86.40;101587.31;5040398;28;20471;-58
2021/11/13 07:59:13;;;;;;;63.72;25.73;;;;;;;6.39;86.53;101586.31;5038414;28;20033;-58
2021/11/13 08:01:39;;;;;;;59.58;24.80;;;;;;;6.39;86.38;101585.47;5038722;28;20029;-56
2021/11/13 08:04:04;;;;;;;53.38;22.92;;;;;;;6.36;86.24;101584.88;5038383;28;20509;-56
2021/11/13 08:06:30;;;;;;;54.40;23.50;;;;;;;6.35;86.09;101591.22;5032441;28;20478;-54
2021/11/13 08:08:55;;;;;;;58.13;24.95;;;;;;;6.43;86.42;101592.84;5038360;28;20032;-55
2021/11/13 08:11:21;;;;;;;59.45;25.40;;;;;;;6.45;86.16;101595.31;5036521;28;20180;-56
2021/11/13 08:13:47;;;;;;;56.70;24.15;;;;;;;6.47;85.78;101588.81;5037129;28;20040;-54
2021/11/13 08:16:13;;;;;;;54.35;24.25;;;;;;;6.42;85.69;101587.72;5034421;28;20029;-58
2021/11/13 08:18:38;;;;;;;56.08;23.42;;;;;;;6.46;85.89;101583.66;5041602;28;20486;-56
2021/11/13 08:21:04;;;;;;;47.97;21.88;;;;;;;6.49;85.56;101585.94;5037568;28;20155;-58
2021/11/13 08:23:30;;;;;;;59.35;24.23;;;;;;;6.51;85.53;101589.22;5034651;28;20036;-56
2021/11/13 08:25:57;;;;;;;51.13;23.20;;;;;;;6.53;85.33;101585.31;5035812;28;21126;-55
2021/11/13 08:28:24;;;;;;;52.55;23.33;;;;;;;6.52;85.13;101586.34;5035754;28;20067;-54
2021/11/13 08:30:50;;;;;;;50.50;23.20;;;;;;;6.53;85.29;101576.53;5037265;28;20082;-56
2021/11/13 08:33:17;;;;;;;49.40;22.58;;;;;;;6.51;84.73;101568.72;5039706;28;20026;-58
2021/11/13 08:35:44;;;;;;;57.03;22.48;;;;;;;6.55;85.05;101563.81;5038559;28;20021;-54
2021/11/13 08:38:15;;;;;;;53.33;22.70;;;;;;;6.53;84.69;101566.69;5036941;28;20032;-54
2021/11/13 08:40:41;;;;;;;50.28;22.42;;;;;;;6.51;85.07;101570.56;5035757;28;20028;-53
2021/11/13 08:43:08;;;;;;;52.58;23.33;;;;;;;6.52;84.65;101573.03;5031545;28;20372;-56
2021/11/13 08:45:35;;;;;;;51.50;23.17;;;;;;;6.46;84.91;101573.81;5030967;28;20056;-56
2021/11/13 08:48:00;;;;;;;48.35;21.52;;;;;;;6.45;84.85;101568.69;5031787;28;20025;-55
2021/11/13 08:50:29;;;;;;;52.90;21.27;;;;;;;6.49;84.86;101576.09;5032783;28;20115;-55
2021/11/13 08:52:58;;;;;;;47.42;21.77;;;;;;;6.51;84.59;101576.72;5037307;28;20571;-55
2021/11/13 08:55:26;;;;;;;47.17;20.83;;;;;;;6.65;84.54;101570.41;5034741;28;20419;-56
2021/11/13 08:57:53;;;;;;;45.17;21.83;;;;;;;6.61;84.26;101573.66;5035186;28;20433;-57
2021/11/13 09:00:26;;;;;;;50.95;21.80;;;;;;;6.67;83.91;101578.19;5033683;28;20075;-54
2021/11/13 09:02:55;;;;;;;48.08;21.30;;;;;;;6.71;83.54;101574.09;5031546;28;20482;-55
2021/11/13 09:05:21;;;;;;;50.88;23.05;;;;;;;6.82;83.54;101576.19;5037794;28;20052;-57
2021/11/13 09:07:47;;;;;;;46.08;20.60;;;;;;;6.99;83.33;101571.25;5040224;28;20028;-57
2021/11/13 09:10:13;;;;;;;45.17;20.40;;;;;;;7.02;82.49;101562.06;5038060;28;20487;-54
2021/11/13 09:12:39;;;;;;;46.45;20.13;;;;;;;6.99;82.47;101576.56;5040633;28;20060;-56
2021/11/13 09:15:12;;;;;;;44.05;20.77;;;;;;;7.08;82.38;101574.56;5041794;28;20048;-57
2021/11/13 09:17:37;;;;;;;41.90;20.77;;;;;;;7.11;82.16;101579.47;5039286;28;20021;-58
2021/11/13 09:20:05;;;;;;;46.60;22.05;;;;;;;7.14;81.75;101581.72;5033987;28;20411;-57
2021/11/13 09:22:30;;;;;;;45.15;20.08;;;;;;;7.11;81.98;101582.13;5035017;28;20627;-54
2021/11/13 09:24:56;;;;;;;42.05;19.95;;;;;;;7.15;82.06;101583.34;5033249;28;20029;-56
2021/11/13 09:27:21;;;;;;;48.78;21.00;;;;;;;7.16;81.64;101585.81;5032865;28;20052;-54
2021/11/13 09:29:47;;;;;;;42.72;21.10;;;;;;;7.23;81.56;101581.31;5042393;28;20033;-57
2021/11/13 09:32:12;;;;;;;45.83;21.25;;;;;;;7.20;80.82;101583.56;5041579;28;20100;-53
2021/11/13 09:34:38;;;;;;;44.47;21.55;;;;;;;7.31;81.42;101582.94;5043076;28;20124;-56
2021/11/13 09:37:03;;;;;;;49.65;21.98;;;;;;;7.36;80.74;101572.50;5035545;28;20037;-55
2021/11/13 09:39:29;;;;;;;40.08;19.30;;;;;;;7.37;80.27;101578.66;5032192;28;20090;-55
2021/11/13 09:41:59;;;;;;;44.00;21.00;;;;;;;7.36;80.38;101577.84;5034657;28;20040;-55
2021/11/13 09:44:25;;;;;;;44.90;20.83;;;;;;;7.36;80.62;101577.84;5038154;28;20479;-56
2021/11/13 09:46:51;;;;;;;38.67;19.08;;;;;;;7.49;80.13;101584.97;5039202;28;20342;-54
2021/11/13 09:49:17;;;;;;;40.83;19.42;;;;;;;7.52;80.10;101589.91;5031304;28;20106;-53
2021/11/13 09:51:47;;;;;;;42.30;19.60;;;;;;;7.55;80.03;101593.00;5035991;28;20029;-57
2021/11/13 09:54:13;;;;;;;44.22;22.10;;;;;;;7.51;79.61;101594.41;5031661;28;20375;-55
2021/11/13 09:56:39;;;;;;;44.00;20.55;;;;;;;7.57;80.00;101598.94;5032960;28;20097;-56
2021/11/13 09:59:04;;;;;;;42.08;20.33;;;;;;;7.67;79.63;101595.81;5036357;28;20036;-57
2021/11/13 10:01:31;;;;;;;40.35;20.70;;;;;;;7.68;79.19;101599.31;5033306;28;20474;-55
2021/11/13 10:03:57;;;;;;;40.45;19.98;;;;;;;7.78;78.93;101591.72;5030928;28;20091;-57
2021/11/13 10:06:22;;;;;;;40.83;19.67;;;;;;;7.65;77.52;101586.41;5034856;28;20025;-54
2021/11/13 10:08:49;;;;;;;40.63;19.23;;;;;;;7.48;78.46;101597.50;5037619;28;20155;-55
2021/11/13 10:11:22;;;;;;;38.20;18.60;;;;;;;7.42;78.26;101587.66;5033395;28;20378;-58
2021/11/13 10:13:57;;;;;;;41.45;19.20;;;;;;;7.52;77.24;101595.22;5031028;28;20030;-55
2021/11/13 10:16:36;;;;;;;36.15;18.55;;;;;;;7.66;77.93;101607.53;5032670;28;20307;-54
2021/11/13 10:19:14;;;;;;;45.35;19.27;;;;;;;7.72;76.97;101590.72;5035841;28;20036;-58
2021/11/13 10:21:42;;;;;;;35.83;16.55;;;;;;;7.73;76.24;101600.34;5035150;28;20029;-57
2021/11/13 10:24:22;;;;;;;33.22;15.73;;;;;;;7.73;76.56;101596.84;5038201;28;20095;-59
2021/11/13 10:27:00;;;;;;;43.20;20.48;;;;;;;7.88;76.89;101597.41;5032973;28;20061;-55
2021/11/13 10:29:37;;;;;;;36.83;19.33;;;;;;;7.91;76.58;101596.19;5031598;28;20056;-55
2021/11/13 10:32:09;;;;;;;41.42;20.38;;;;;;;7.96;76.76;101593.72;5030900;28;20052;-55
2021/11/13 10:34:40;;;;;;;37.95;18.65;;;;;;;7.89;76.65;101588.38;5029644;28;20071;-55
2021/11/13 10:37:13;;;;;;;42.28;20.02;;;;;;;7.94;76.59;101599.25;5035610;28;20105;-57
2021/11/13 10:39:42;;;;;;;42.58;19.73;;;;;;;7.88;76.64;101592.06;5038614;28;20041;-58
2021/11/13 10:42:17;;;;;;;40.63;18.90;;;;;;;7.68;76.70;101589.47;5040715;28;20078;-58
2021/11/13 10:44:54;;;;;;;39.88;18.85;;;;;;;7.76;76.93;101593.78;5037868;28;20045;-56
2021/11/13 10:47:23;;;;;;;35.08;17.67;;;;;;;7.80;76.94;101592.31;5036307;28;20071;-53
2021/11/13 10:49:51;;;;;;;38.28;18.67;;;;;;;7.94;76.59;101590.44;5037115;28;20103;-57
2021/11/13 10:52:17;;;;;;;38.00;18.20;;;;;;;8.19;75.97;101586.84;5043709;28;20510;-56
2021/11/13 10:54:47;;;;;;;35.42;16.27;;;;;;;8.18;74.68;101587.88;5038828;28;20264;-57
2021/11/13 10:57:13;;;;;;;43.47;19.40;;;;;;;8.37;74.96;101582.69;5041382;28;20020;-56
2021/11/13 10:59:38;;;;;;;33.88;18.73;;;;;;;9.00;74.36;101582.72;5038982;28;20025;-57
2021/11/13 11:02:05;;;;;;;37.50;19.30;;;;;;;9.31;71.70;101582.66;5042604;28;20491;-54
2021/11/13 11:04:34;;;;;;;34.50;18.95;;;;;;;9.53;70.68;101583.09;5037805;28;20458;-55
2021/11/13 11:07:15;;;;;;;34.38;17.65;;;;;;;9.55;70.15;101588.22;5041489;28;20498;-58
2021/11/13 11:09:43;;;;;;;38.22;17.33;;;;;;;9.87;69.11;101584.38;5032755;28;20116;-58
2021/11/13 11:12:14;;;;;;;32.55;17.80;;;;;;;9.85;69.27;101589.13;5041758;28;20021;-58
2021/11/13 11:14:45;;;;;;;37.90;17.92;;;;;;;9.98;69.47;101583.63;5041930;28;20219;-58